createdAt,value
2018-08-17T00:00:54.619Z,21.60
2018-08-17T00:05:57.194Z,21.70
2018-08-17T00:10:59.880Z,21.70
2018-08-17T00:16:02.458Z,21.50
2018-08-17T00:21:05.051Z,21.30
2018-08-17T00:26:07.770Z,21.00
2018-08-17T00:31:10.282Z,21.50
2018-08-17T00:36:12.947Z,20.50
2018-08-17T00:41:15.490Z,20.20
2018-08-17T00:46:18.170Z,19.90
2018-08-17T00:51:20.782Z,20.40
2018-08-17T00:56:23.319Z,19.50
2018-08-17T01:01:25.842Z,19.50
2018-08-17T01:06:28.380Z,20.00
2018-08-17T01:11:30.898Z,20.20
2018-08-17T01:16:33.455Z,20.40
2018-08-17T01:21:36.076Z,20.40
2018-08-17T01:26:38.593Z,20.40
2018-08-17T01:31:41.245Z,20.40
2018-08-17T01:36:43.850Z,20.20
2018-08-17T01:41:46.425Z,19.90
2018-08-17T01:46:48.964Z,19.60
2018-08-17T01:51:51.650Z,19.40
2018-08-17T01:56:54.164Z,19.40
2018-08-17T02:01:56.703Z,19.50
2018-08-17T02:06:59.239Z,19.60
2018-08-17T02:12:02.646Z,19.50
2018-08-17T02:17:05.204Z,19.40
2018-08-17T02:22:07.781Z,19.20
2018-08-17T02:27:10.318Z,19.00
2018-08-17T02:32:12.827Z,18.90
2018-08-17T02:37:15.345Z,20.20
2018-08-17T02:42:17.884Z,18.60
2018-08-17T02:47:20.412Z,18.40
2018-08-17T02:52:22.965Z,18.20
2018-08-17T02:57:25.660Z,18.10
2018-08-17T03:02:28.195Z,17.80
2018-08-17T03:07:30.710Z,17.90
2018-08-17T03:12:33.236Z,17.60
2018-08-17T03:17:35.789Z,17.40
2018-08-17T03:22:38.380Z,18.20
2018-08-17T03:27:40.965Z,17.30
2018-08-17T03:32:43.545Z,17.30
2018-08-17T03:37:46.079Z,18.00
2018-08-17T03:42:48.594Z,17.10
2018-08-17T03:47:51.154Z,17.10
2018-08-17T03:52:53.673Z,17.20
2018-08-17T03:57:56.225Z,17.20
2018-08-17T04:02:58.827Z,17.30
2018-08-17T04:08:01.452Z,17.30
2018-08-17T04:13:04.292Z,18.40
2018-08-17T04:18:08.031Z,17.00
2018-08-17T04:23:10.565Z,16.90
2018-08-17T04:28:13.191Z,16.70
2018-08-17T04:33:15.736Z,16.90
2018-08-17T04:38:18.259Z,16.90
2018-08-17T04:43:20.895Z,17.10
2018-08-17T04:48:23.579Z,17.00
2018-08-17T04:53:29.863Z,17.00
2018-08-17T04:58:32.389Z,17.10
2018-08-17T05:03:34.919Z,17.20
2018-08-17T05:08:37.450Z,17.30
2018-08-17T05:13:39.963Z,17.40
2018-08-17T05:18:42.518Z,17.50
2018-08-17T05:23:45.055Z,17.50
2018-08-17T05:28:47.582Z,17.60
2018-08-17T05:33:50.302Z,17.70
2018-08-17T05:38:53.467Z,17.90
2018-08-17T05:43:56.010Z,18.10
2018-08-17T05:48:58.557Z,19.40
2018-08-17T05:54:01.234Z,18.60
2018-08-17T05:59:03.810Z,18.90
2018-08-17T06:04:08.800Z,19.10
2018-08-17T06:09:11.351Z,19.30
2018-08-17T06:14:14.019Z,19.50
2018-08-17T06:19:17.490Z,19.70
2018-08-17T06:24:20.184Z,20.10
2018-08-17T06:29:22.715Z,20.50
2018-08-17T06:34:25.513Z,20.90
2018-08-17T06:39:28.090Z,21.30
2018-08-17T06:44:30.672Z,21.70
2018-08-17T06:49:36.273Z,22.20
2018-08-17T06:54:38.889Z,22.60
2018-08-17T06:59:41.904Z,23.20
2018-08-17T07:04:45.212Z,23.60
2018-08-17T07:09:47.760Z,24.00
2018-08-17T07:14:50.406Z,24.30
2018-08-17T07:19:53.078Z,24.10
2018-08-17T07:24:55.602Z,24.10
2018-08-17T07:30:01.894Z,23.70
2018-08-17T07:35:06.266Z,20.50
2018-08-17T07:40:08.962Z,24.10
2018-08-17T07:45:11.572Z,24.80
2018-08-17T07:50:16.237Z,25.30
2018-08-17T07:55:18.794Z,25.50
2018-08-17T08:00:21.415Z,25.50
2018-08-17T08:05:23.975Z,25.40
2018-08-17T08:10:29.799Z,25.30
2018-08-17T08:15:32.487Z,25.70
2018-08-17T08:20:37.143Z,25.60
2018-08-17T08:25:40.347Z,26.10
2018-08-17T08:30:43.250Z,26.20
2018-08-17T08:35:46.234Z,26.40
2018-08-17T08:40:48.867Z,26.40
2018-08-17T08:45:51.435Z,26.90
2018-08-17T08:50:53.974Z,27.10
2018-08-17T08:55:56.638Z,27.20
2018-08-17T09:00:59.219Z,27.40
2018-08-17T09:06:01.882Z,27.90
2018-08-17T09:11:04.815Z,28.90
2018-08-17T09:16:07.499Z,29.80
2018-08-17T09:21:10.098Z,30.60
2018-08-17T09:26:12.629Z,31.00
2018-08-17T09:31:15.187Z,31.50
2018-08-17T09:36:17.771Z,31.80
2018-08-17T09:41:20.330Z,31.50
2018-08-17T09:52:19.212Z,32.50
2018-08-17T09:57:21.755Z,33.40
2018-08-17T10:03:28.588Z,33.60
2018-08-17T10:08:36.305Z,33.20
2018-08-17T10:25:31.555Z,34.60
2018-08-17T10:30:34.315Z,35.10
2018-08-17T10:35:36.920Z,35.70
2018-08-17T10:40:39.642Z,35.80
2018-08-17T10:45:42.175Z,36.30
2018-08-17T10:50:44.735Z,36.20
2018-08-17T10:55:47.840Z,36.20
2018-08-17T11:00:50.372Z,36.40
2018-08-17T11:05:52.900Z,36.80
2018-08-17T11:10:55.461Z,38.20
2018-08-17T11:15:58.235Z,38.30
2018-08-17T11:21:00.883Z,38.80
2018-08-17T11:26:03.527Z,37.90
2018-08-17T11:31:06.198Z,38.80
2018-08-17T11:36:08.936Z,40.40
2018-08-17T11:41:12.280Z,41.00
2018-08-17T11:46:14.843Z,41.40
2018-08-17T11:51:17.772Z,42.30
2018-08-17T11:56:20.461Z,42.80
2018-08-17T12:01:26.452Z,43.40
2018-08-17T12:06:29.009Z,41.10
2018-08-17T12:11:31.572Z,38.60
2018-08-17T12:16:34.227Z,39.20
2018-08-17T12:21:36.850Z,38.80
2018-08-17T12:26:54.407Z,37.80
2018-08-17T12:31:57.012Z,35.60
2018-08-17T12:36:59.532Z,34.70
2018-08-17T12:42:03.197Z,34.50
2018-08-17T12:47:05.766Z,35.90
2018-08-17T12:52:09.035Z,37.00
2018-08-17T12:57:11.563Z,37.60
2018-08-17T13:02:14.160Z,36.70
2018-08-17T13:07:16.726Z,34.90
2018-08-17T13:12:19.390Z,33.90
2018-08-17T13:17:22.249Z,33.50
2018-08-17T13:22:24.792Z,32.60
2018-08-17T13:27:27.377Z,32.20
2018-08-17T13:32:29.899Z,32.00
2018-08-17T13:37:32.548Z,31.70
2018-08-17T13:42:35.457Z,31.10
2018-08-17T13:47:38.066Z,30.30
2018-08-17T13:52:40.660Z,30.00
2018-08-17T13:57:43.229Z,29.80
2018-08-17T14:02:45.811Z,29.90
2018-08-17T14:07:48.645Z,29.90
2018-08-17T14:12:51.178Z,29.90
2018-08-17T14:17:53.719Z,30.10
2018-08-17T14:22:56.341Z,30.50
2018-08-17T14:27:58.875Z,30.90
2018-08-17T14:33:01.613Z,31.20
2018-08-17T14:38:04.371Z,31.70
2018-08-17T14:43:06.968Z,32.20
2018-08-17T14:48:09.599Z,32.60
2018-08-17T14:53:12.167Z,32.30
2018-08-17T14:58:14.815Z,31.60
2018-08-17T15:03:17.390Z,31.00
2018-08-17T15:08:19.951Z,30.50
2018-08-17T15:13:22.553Z,30.30
2018-08-17T15:18:25.063Z,30.10
2018-08-17T15:23:28.633Z,29.90
2018-08-17T15:28:31.223Z,29.60
2018-08-17T15:33:33.798Z,29.10
2018-08-17T15:38:36.341Z,28.60
2018-08-17T15:43:38.921Z,28.70
2018-08-17T15:48:48.882Z,28.50
2018-08-17T15:53:51.497Z,28.50
2018-08-17T15:58:54.028Z,28.40
2018-08-17T16:03:56.560Z,28.40
2018-08-17T16:08:59.180Z,28.40
2018-08-17T16:14:01.822Z,28.20
2018-08-17T16:19:04.848Z,28.70
2018-08-17T16:24:07.552Z,27.50
2018-08-17T16:29:10.124Z,27.10
2018-08-17T16:34:12.698Z,26.60
2018-08-17T16:39:16.931Z,26.30
2018-08-17T16:44:19.460Z,26.10
2018-08-17T16:49:22.015Z,26.00
2018-08-17T16:54:24.584Z,26.00
2018-08-17T16:59:27.101Z,26.00
2018-08-17T17:04:35.697Z,26.00
2018-08-17T17:09:38.375Z,25.90
2018-08-17T17:14:41.143Z,25.70
2018-08-17T17:19:43.777Z,26.50
2018-08-17T17:24:46.349Z,25.20
2018-08-17T17:29:48.880Z,25.10
2018-08-17T17:34:51.475Z,25.10
2018-08-17T17:39:53.950Z,24.90
2018-08-17T17:44:56.601Z,27.50
2018-08-17T17:49:59.165Z,24.60
2018-08-17T17:55:04.441Z,24.40
2018-08-17T18:00:07.242Z,24.10
2018-08-17T18:05:09.928Z,23.80
2018-08-17T18:10:12.523Z,23.50
2018-08-17T18:15:15.213Z,23.20
2018-08-17T18:20:17.862Z,22.90
2018-08-17T18:25:20.485Z,22.80
2018-08-17T18:30:23.151Z,22.60
2018-08-17T18:35:25.939Z,22.40
2018-08-17T18:40:28.554Z,22.30
2018-08-17T18:45:31.218Z,22.80
2018-08-17T18:50:33.831Z,22.30
2018-08-17T18:55:37.202Z,22.30
2018-08-17T19:00:40.189Z,22.30
2018-08-17T19:05:43.059Z,22.10
2018-08-17T19:10:45.727Z,22.00
2018-08-17T19:15:55.529Z,19.10
2018-08-17T19:21:08.729Z,21.80
2018-08-17T19:26:11.466Z,21.70
2018-08-17T19:31:14.091Z,21.60
2018-08-17T19:36:16.715Z,21.50
2018-08-17T19:41:20.035Z,21.40
2018-08-17T19:46:22.892Z,21.40
2018-08-17T19:51:25.677Z,21.40
2018-08-17T19:56:28.248Z,21.50
2018-08-17T20:01:30.916Z,22.80
2018-08-17T20:06:33.558Z,21.90
2018-08-17T20:11:36.548Z,22.20
2018-08-17T20:16:39.369Z,22.40
2018-08-17T20:21:41.939Z,22.60
2018-08-17T20:26:44.775Z,22.70
2018-08-17T20:31:47.288Z,22.70
2018-08-17T20:36:52.951Z,22.70
2018-08-17T20:41:55.507Z,22.60
2018-08-17T20:46:58.271Z,22.60
2018-08-17T20:52:02.074Z,22.50
2018-08-17T20:57:04.734Z,22.40
2018-08-17T21:02:07.377Z,22.20
2018-08-17T21:07:09.891Z,21.80
2018-08-17T21:12:12.439Z,21.30
2018-08-17T21:17:15.229Z,21.10
2018-08-17T21:22:17.823Z,20.70
2018-08-17T21:27:20.350Z,20.50
2018-08-17T21:32:24.023Z,20.30
2018-08-17T21:37:27.103Z,20.30
2018-08-17T21:42:29.626Z,20.20
2018-08-17T21:47:32.143Z,20.10
2018-08-17T21:52:34.687Z,20.00
2018-08-17T21:57:37.274Z,19.90
2018-08-17T22:02:39.819Z,19.80
2018-08-17T22:07:42.407Z,19.70
2018-08-17T22:12:44.936Z,19.60
2018-08-17T22:17:47.539Z,19.60
2018-08-17T22:22:50.078Z,19.50
2018-08-17T22:27:52.643Z,20.60
2018-08-17T22:32:55.176Z,19.50
2018-08-17T22:37:57.712Z,19.40
2018-08-17T22:43:00.297Z,19.40
2018-08-17T22:48:03.624Z,19.30
2018-08-17T22:53:06.294Z,20.10
2018-08-17T22:58:09.029Z,19.40
2018-08-17T23:03:11.555Z,19.40
2018-08-17T23:08:14.111Z,19.50
2018-08-17T23:13:16.642Z,19.40
2018-08-17T23:18:19.187Z,19.50
2018-08-17T23:23:21.705Z,19.40
2018-08-17T23:28:24.223Z,19.60
2018-08-17T23:33:26.749Z,20.40
2018-08-17T23:38:29.304Z,19.20
2018-08-17T23:43:31.854Z,19.20
2018-08-17T23:48:34.380Z,20.40
2018-08-17T23:53:36.945Z,19.20
2018-08-17T23:58:39.499Z,19.20
